createdAt,value
2018-07-27T00:00:40.318Z,25.16
2018-07-27T00:01:40.359Z,25.12
2018-07-27T00:02:40.271Z,25.11
2018-07-27T00:03:40.246Z,25.05
2018-07-27T00:04:40.243Z,25.05
2018-07-27T00:05:41.300Z,25.02
2018-07-27T00:07:27.292Z,25.04
2018-07-27T00:08:27.289Z,25.08
2018-07-27T00:09:27.211Z,25.07
2018-07-27T00:10:27.303Z,25.01
2018-07-27T00:11:27.181Z,25.02
2018-07-27T00:12:27.214Z,24.93
2018-07-27T00:13:27.156Z,25.02
2018-07-27T00:14:27.228Z,24.94
2018-07-27T00:15:27.098Z,24.89
2018-07-27T00:16:27.138Z,24.84
2018-07-27T00:17:27.069Z,24.80
2018-07-27T00:18:27.217Z,24.77
2018-07-27T00:19:27.039Z,24.75
2018-07-27T00:20:27.065Z,24.75
2018-07-27T00:21:26.999Z,24.70
2018-07-27T00:22:27.079Z,24.70
2018-07-27T00:23:26.950Z,24.68
2018-07-27T00:24:26.994Z,24.75
2018-07-27T00:25:26.905Z,24.66
2018-07-27T00:26:27.005Z,24.59
2018-07-27T00:27:26.869Z,24.70
2018-07-27T00:28:26.844Z,24.61
2018-07-27T00:29:27.945Z,24.59
2018-07-27T00:30:28.311Z,24.53
2018-07-27T00:31:27.852Z,24.74
2018-07-27T00:32:26.772Z,24.51
2018-07-27T00:33:26.754Z,24.56
2018-07-27T00:34:26.846Z,24.60
2018-07-27T00:35:26.721Z,24.49
2018-07-27T00:36:28.355Z,24.49
2018-07-27T00:37:26.686Z,24.41
2018-07-27T00:38:26.772Z,24.41
2018-07-27T00:39:26.637Z,24.23
2018-07-27T00:40:26.681Z,24.33
2018-07-27T00:41:26.607Z,24.31
2018-07-27T00:42:26.698Z,24.30
2018-07-27T00:43:26.571Z,24.29
2018-07-27T00:44:31.421Z,24.11
2018-07-27T00:45:28.326Z,24.23
2018-07-27T00:46:26.618Z,24.30
2018-07-27T00:47:28.319Z,24.24
2018-07-27T00:48:26.528Z,24.19
2018-07-27T00:49:26.456Z,24.24
2018-07-27T00:50:28.322Z,24.16
2018-07-27T00:51:26.449Z,24.09
2018-07-27T00:52:26.394Z,23.93
2018-07-27T00:53:28.405Z,24.06
2018-07-27T00:54:26.355Z,24.12
2018-07-27T00:55:26.369Z,24.02
2018-07-27T00:56:26.323Z,23.99
2018-07-27T00:57:26.379Z,24.02
2018-07-27T00:58:26.283Z,23.97
2018-07-27T00:59:26.295Z,23.93
2018-07-27T01:00:26.236Z,23.96
2018-07-27T01:01:26.303Z,23.84
2018-07-27T01:02:26.209Z,23.74
2018-07-27T01:03:26.204Z,23.74
2018-07-27T01:04:30.936Z,23.71
2018-07-27T01:05:26.159Z,23.67
2018-07-27T01:06:27.154Z,23.62
2018-07-27T01:07:26.097Z,23.72
2018-07-27T01:08:27.168Z,23.72
2018-07-27T01:09:26.060Z,23.69
2018-07-27T01:10:26.054Z,23.62
2018-07-27T01:11:26.024Z,23.68
2018-07-27T01:12:26.081Z,23.69
2018-07-27T01:13:25.994Z,23.60
2018-07-27T01:14:25.996Z,23.62
2018-07-27T01:15:25.950Z,23.63
2018-07-27T01:16:26.002Z,23.62
2018-07-27T01:17:25.903Z,23.60
2018-07-27T01:18:25.915Z,23.57
2018-07-27T01:19:25.872Z,23.57
2018-07-27T01:20:25.929Z,23.59
2018-07-27T01:21:25.829Z,23.62
2018-07-27T01:22:25.823Z,23.50
2018-07-27T01:23:25.807Z,23.47
2018-07-27T01:24:26.859Z,23.47
2018-07-27T01:25:25.756Z,23.44
2018-07-27T01:26:30.366Z,23.44
2018-07-27T01:27:25.731Z,23.41
2018-07-27T01:28:25.759Z,23.35
2018-07-27T01:29:25.678Z,23.39
2018-07-27T01:30:27.012Z,23.35
2018-07-27T01:31:25.638Z,23.32
2018-07-27T01:32:25.687Z,23.25
2018-07-27T01:33:27.336Z,23.32
2018-07-27T01:34:25.814Z,23.34
2018-07-27T01:35:25.775Z,23.26
2018-07-27T01:36:26.975Z,23.22
2018-07-27T01:37:25.806Z,23.34
2018-07-27T01:38:25.526Z,23.25
2018-07-27T01:39:25.486Z,23.23
2018-07-27T01:40:25.534Z,23.25
2018-07-27T01:41:25.429Z,23.23
2018-07-27T01:42:25.450Z,23.18
2018-07-27T01:43:25.407Z,23.21
2018-07-27T01:44:25.465Z,23.16
2018-07-27T01:45:25.365Z,23.14
2018-07-27T01:46:25.385Z,23.09
2018-07-27T01:47:25.346Z,23.12
2018-07-27T01:48:27.337Z,23.07
2018-07-27T01:49:25.272Z,23.12
2018-07-27T01:50:25.308Z,23.04
2018-07-27T01:51:25.253Z,23.04
2018-07-27T01:52:27.254Z,23.04
2018-07-27T01:53:25.199Z,23.11
2018-07-27T01:54:25.216Z,23.01
2018-07-27T01:55:25.184Z,23.06
2018-07-27T01:56:25.237Z,23.06
2018-07-27T01:57:25.124Z,23.06
2018-07-27T01:58:25.148Z,23.01
2018-07-27T01:59:25.083Z,22.97
2018-07-27T02:00:25.152Z,22.94
2018-07-27T02:01:25.046Z,22.86
2018-07-27T02:02:26.126Z,22.93
2018-07-27T02:03:25.007Z,22.88
2018-07-27T02:04:25.078Z,22.91
2018-07-27T02:05:24.960Z,22.86
2018-07-27T02:06:24.995Z,22.89
2018-07-27T02:07:24.931Z,22.85
2018-07-27T02:08:25.001Z,22.86
2018-07-27T02:09:24.883Z,22.89
2018-07-27T02:10:24.935Z,22.76
2018-07-27T02:11:24.861Z,22.85
2018-07-27T02:12:24.920Z,22.69
2018-07-27T02:13:24.804Z,22.69
2018-07-27T02:15:11.731Z,22.70
2018-07-27T02:16:11.683Z,22.64
2018-07-27T02:17:11.749Z,22.60
2018-07-27T02:18:11.648Z,22.63
2018-07-27T02:19:11.661Z,22.61
2018-07-27T02:20:11.599Z,22.61
2018-07-27T02:21:11.671Z,22.52
2018-07-27T02:22:11.583Z,22.61
2018-07-27T02:23:12.602Z,22.61
2018-07-27T02:24:11.532Z,22.51
2018-07-27T02:25:16.196Z,22.59
2018-07-27T02:26:11.493Z,22.46
2018-07-27T02:27:13.549Z,22.49
2018-07-27T02:28:11.448Z,22.54
2018-07-27T02:29:11.519Z,22.51
2018-07-27T02:30:11.413Z,22.49
2018-07-27T02:31:12.449Z,22.48
2018-07-27T02:32:11.378Z,22.42
2018-07-27T02:33:12.481Z,22.45
2018-07-27T02:34:11.338Z,22.45
2018-07-27T02:35:12.384Z,22.44
2018-07-27T02:36:11.309Z,22.39
2018-07-27T02:37:11.366Z,22.42
2018-07-27T02:38:11.246Z,22.41
2018-07-27T02:39:11.283Z,22.27
2018-07-27T02:40:11.217Z,22.36
2018-07-27T02:41:16.209Z,22.33
2018-07-27T02:42:11.173Z,22.30
2018-07-27T02:43:11.213Z,22.30
2018-07-27T02:44:11.137Z,22.31
2018-07-27T02:45:11.217Z,22.30
2018-07-27T02:46:11.093Z,22.27
2018-07-27T02:47:11.227Z,22.29
2018-07-27T02:48:11.212Z,22.23
2018-07-27T02:49:11.352Z,22.23
2018-07-27T02:50:11.313Z,22.14
2018-07-27T02:51:11.411Z,22.15
2018-07-27T02:52:10.967Z,22.19
2018-07-27T02:53:11.060Z,22.11
2018-07-27T02:54:10.939Z,22.09
2018-07-27T02:55:10.968Z,22.08
2018-07-27T02:56:10.896Z,22.12
2018-07-27T02:57:12.046Z,22.15
2018-07-27T02:58:10.879Z,22.14
2018-07-27T02:59:10.906Z,21.96
2018-07-27T03:00:10.816Z,21.99
2018-07-27T03:01:12.127Z,21.96
2018-07-27T03:02:10.786Z,22.01
2018-07-27T03:03:10.817Z,22.01
2018-07-27T03:04:10.727Z,21.93
2018-07-27T03:05:10.725Z,21.93
2018-07-27T03:06:10.703Z,21.83
2018-07-27T03:07:11.759Z,21.79
2018-07-27T03:08:10.650Z,21.89
2018-07-27T03:09:10.661Z,21.79
2018-07-27T03:10:10.614Z,21.83
2018-07-27T03:11:10.661Z,21.79
2018-07-27T03:12:10.596Z,21.86
2018-07-27T03:13:10.573Z,21.85
2018-07-27T03:14:10.530Z,21.83
2018-07-27T03:15:10.584Z,21.82
2018-07-27T03:16:10.504Z,21.82
2018-07-27T03:17:10.504Z,21.82
2018-07-27T03:18:10.453Z,21.86
2018-07-27T03:19:10.518Z,21.83
2018-07-27T03:20:10.414Z,21.81
2018-07-27T03:21:10.424Z,21.83
2018-07-27T03:22:10.374Z,21.89
2018-07-27T03:23:10.441Z,21.82
2018-07-27T03:24:10.334Z,21.83
2018-07-27T03:25:10.341Z,21.83
2018-07-27T03:26:10.301Z,21.82
2018-07-27T03:27:10.363Z,21.81
2018-07-27T03:28:10.265Z,21.82
2018-07-27T03:29:10.322Z,21.75
2018-07-27T03:30:10.221Z,21.81
2018-07-27T03:31:10.284Z,21.81
2018-07-27T03:32:10.169Z,21.79
2018-07-27T03:33:10.199Z,21.81
2018-07-27T03:34:10.152Z,21.71
2018-07-27T03:35:10.213Z,21.83
2018-07-27T03:36:10.099Z,21.74
2018-07-27T03:37:11.142Z,21.77
2018-07-27T03:38:10.086Z,21.68
2018-07-27T03:39:10.132Z,21.74
2018-07-27T03:40:10.012Z,21.68
2018-07-27T03:41:11.068Z,21.71
2018-07-27T03:42:10.025Z,21.59
2018-07-27T03:43:10.068Z,21.70
2018-07-27T03:44:09.927Z,21.68
2018-07-27T03:45:09.961Z,21.75
2018-07-27T03:46:09.893Z,21.64
2018-07-27T03:47:09.984Z,21.71
2018-07-27T03:48:09.850Z,21.61
2018-07-27T03:49:09.889Z,21.71
2018-07-27T03:50:09.861Z,21.66
2018-07-27T03:51:09.901Z,21.66
2018-07-27T03:52:09.777Z,21.74
2018-07-27T03:53:09.806Z,21.64
2018-07-27T03:54:09.730Z,21.70
2018-07-27T03:55:09.838Z,21.71
2018-07-27T03:56:09.687Z,21.64
2018-07-27T03:57:09.740Z,21.70
2018-07-27T03:58:09.659Z,21.68
2018-07-27T03:59:09.745Z,21.68
2018-07-27T04:00:09.622Z,21.71
2018-07-27T04:01:11.705Z,21.61
2018-07-27T04:02:09.617Z,21.64
2018-07-27T04:03:09.672Z,21.64
2018-07-27T04:04:09.534Z,21.75
2018-07-27T04:05:09.609Z,21.77
2018-07-27T04:06:09.508Z,21.75
2018-07-27T04:07:09.491Z,21.79
2018-07-27T04:08:09.453Z,21.77
2018-07-27T04:09:09.510Z,21.77
2018-07-27T04:10:09.414Z,21.86
2018-07-27T04:11:09.411Z,21.85
2018-07-27T04:12:09.376Z,21.89
2018-07-27T04:13:09.429Z,21.91
2018-07-27T04:14:09.339Z,21.94
2018-07-27T04:15:09.347Z,21.85
2018-07-27T04:16:09.305Z,21.91
2018-07-27T04:17:10.381Z,22.09
2018-07-27T04:18:09.263Z,21.93
2018-07-27T04:19:09.270Z,21.99
2018-07-27T04:20:09.219Z,22.12
2018-07-27T04:21:09.278Z,22.17
2018-07-27T04:22:09.176Z,22.11
2018-07-27T04:23:10.221Z,22.14
2018-07-27T04:24:09.220Z,22.08
2018-07-27T04:25:09.207Z,22.14
2018-07-27T04:26:09.098Z,22.19
2018-07-27T04:27:09.127Z,22.23
2018-07-27T04:28:09.078Z,22.19
2018-07-27T04:29:09.122Z,22.24
2018-07-27T04:30:09.015Z,22.24
2018-07-27T04:31:09.056Z,22.27
2018-07-27T04:32:08.996Z,22.24
2018-07-27T04:33:09.180Z,22.19
2018-07-27T04:34:09.123Z,22.26
2018-07-27T04:35:09.286Z,22.38
2018-07-27T04:36:09.203Z,22.26
2018-07-27T04:37:09.276Z,22.29
2018-07-27T04:38:08.876Z,22.31
2018-07-27T04:39:10.928Z,22.38
2018-07-27T04:40:08.820Z,22.38
2018-07-27T04:41:08.890Z,22.42
2018-07-27T04:42:08.781Z,22.42
2018-07-27T04:43:08.814Z,22.46
2018-07-27T04:44:08.721Z,22.45
2018-07-27T04:45:08.839Z,22.46
2018-07-27T04:46:08.759Z,22.48
2018-07-27T04:47:08.760Z,22.45
2018-07-27T04:48:08.668Z,22.54
2018-07-27T04:49:08.785Z,22.54
2018-07-27T04:50:08.619Z,22.57
2018-07-27T04:51:08.647Z,22.60
2018-07-27T04:52:08.562Z,22.60
2018-07-27T04:53:08.574Z,22.59
2018-07-27T04:54:08.525Z,22.63
2018-07-27T04:55:08.580Z,22.51
2018-07-27T04:56:08.541Z,22.59
2018-07-27T04:57:08.490Z,22.56
2018-07-27T04:58:08.443Z,22.60
2018-07-27T04:59:09.528Z,22.63
2018-07-27T05:00:08.405Z,22.56
2018-07-27T05:01:08.416Z,22.59
2018-07-27T05:02:08.395Z,22.56
2018-07-27T05:03:08.337Z,22.56
2018-07-27T05:04:08.318Z,22.57
2018-07-27T05:05:08.338Z,22.61
2018-07-27T05:06:08.288Z,22.59
2018-07-27T05:07:08.358Z,22.64
2018-07-27T05:08:08.234Z,22.57
2018-07-27T05:09:08.318Z,22.54
2018-07-27T05:10:08.201Z,22.48
2018-07-27T05:11:08.264Z,22.61
2018-07-27T05:12:08.176Z,22.54
2018-07-27T05:13:08.206Z,22.63
2018-07-27T05:14:08.126Z,22.72
2018-07-27T05:15:08.195Z,22.60
2018-07-27T05:16:08.079Z,22.66
2018-07-27T05:17:08.197Z,22.66
2018-07-27T05:18:08.079Z,22.66
2018-07-27T05:19:08.212Z,22.67
2018-07-27T05:20:08.012Z,22.67
2018-07-27T05:21:07.982Z,22.81
2018-07-27T05:22:07.964Z,22.70
2018-07-27T05:23:07.940Z,22.76
2018-07-27T05:24:07.926Z,22.74
2018-07-27T05:25:07.928Z,22.75
2018-07-27T05:26:07.883Z,22.70
2018-07-27T05:27:07.870Z,22.81
2018-07-27T05:28:07.861Z,22.66
2018-07-27T05:29:07.878Z,22.79
2018-07-27T05:30:07.812Z,22.82
2018-07-27T05:31:07.899Z,22.76
2018-07-27T05:32:07.772Z,22.84
2018-07-27T05:33:07.804Z,22.85
2018-07-27T05:34:07.730Z,22.82
2018-07-27T05:35:08.737Z,22.81
2018-07-27T05:36:07.689Z,22.91
2018-07-27T05:37:07.742Z,22.86
2018-07-27T05:38:07.654Z,22.88
2018-07-27T05:39:07.730Z,22.97
2018-07-27T05:40:07.614Z,22.91
2018-07-27T05:41:07.652Z,22.91
2018-07-27T05:42:07.573Z,22.89
2018-07-27T05:43:07.655Z,22.97
2018-07-27T05:44:07.543Z,22.81
2018-07-27T05:45:08.596Z,22.99
2018-07-27T05:46:07.493Z,22.96
2018-07-27T05:47:07.614Z,22.94
2018-07-27T05:48:07.453Z,22.88
2018-07-27T05:49:07.492Z,22.94
2018-07-27T05:50:07.410Z,22.85
2018-07-27T05:51:07.407Z,22.84
2018-07-27T05:52:07.376Z,22.86
2018-07-27T05:53:07.420Z,22.96
2018-07-27T05:54:07.332Z,22.91
2018-07-27T05:55:07.326Z,22.82
2018-07-27T05:56:07.296Z,22.88
2018-07-27T05:57:08.371Z,22.96
2018-07-27T05:58:07.250Z,22.94
2018-07-27T05:59:07.248Z,22.91
2018-07-27T06:00:07.217Z,22.93
2018-07-27T06:01:07.310Z,22.89
2018-07-27T06:02:07.166Z,22.94
2018-07-27T06:03:07.199Z,22.97
2018-07-27T06:04:07.131Z,22.94
2018-07-27T06:05:07.113Z,22.93
2018-07-27T06:06:07.093Z,22.93
2018-07-27T06:07:07.132Z,23.04
2018-07-27T06:08:07.039Z,22.99
2018-07-27T06:09:07.148Z,23.06
2018-07-27T06:10:07.003Z,23.01
2018-07-27T06:11:09.143Z,23.09
2018-07-27T06:12:06.960Z,23.09
2018-07-27T06:13:07.078Z,23.07
2018-07-27T06:14:06.929Z,23.09
2018-07-27T06:15:06.983Z,23.12
2018-07-27T06:16:06.928Z,23.09
2018-07-27T06:17:07.035Z,23.18
2018-07-27T06:18:06.908Z,23.22
2018-07-27T06:19:06.983Z,23.35
2018-07-27T06:20:06.830Z,23.53
2018-07-27T06:21:06.981Z,23.50
2018-07-27T06:22:06.805Z,23.52
2018-07-27T06:23:06.828Z,23.63
2018-07-27T06:24:06.804Z,23.72
2018-07-27T06:25:06.884Z,23.71
2018-07-27T06:26:06.679Z,23.75
2018-07-27T06:27:06.763Z,23.92
2018-07-27T06:28:06.709Z,23.99
2018-07-27T06:29:06.797Z,24.00
2018-07-27T06:30:06.675Z,24.09
2018-07-27T06:31:06.597Z,24.14
2018-07-27T06:32:06.641Z,24.29
2018-07-27T06:33:06.554Z,24.31
2018-07-27T06:34:06.552Z,24.29
2018-07-27T06:35:06.505Z,24.45
2018-07-27T06:36:06.575Z,24.52
2018-07-27T06:37:06.464Z,24.66
2018-07-27T06:38:06.480Z,24.70
2018-07-27T06:39:06.456Z,24.90
2018-07-27T06:40:06.500Z,24.90
2018-07-27T06:41:06.386Z,25.04
2018-07-27T06:42:06.415Z,25.29
2018-07-27T06:43:06.344Z,25.29
2018-07-27T06:44:06.416Z,25.45
2018-07-27T06:45:06.334Z,25.64
2018-07-27T06:46:06.334Z,25.85
2018-07-27T06:47:06.252Z,26.00
2018-07-27T06:48:06.248Z,26.03
2018-07-27T06:49:06.252Z,26.08
2018-07-27T06:50:06.278Z,26.13
2018-07-27T06:51:06.183Z,26.13
2018-07-27T06:52:06.302Z,26.27
2018-07-27T06:53:06.169Z,26.35
2018-07-27T06:54:06.204Z,26.39
2018-07-27T06:55:06.097Z,26.24
2018-07-27T06:56:06.200Z,26.41
2018-07-27T06:57:06.066Z,26.39
2018-07-27T06:58:06.105Z,26.50
2018-07-27T06:59:06.014Z,26.57
2018-07-27T07:00:10.830Z,26.68
2018-07-27T07:01:06.001Z,26.61
2018-07-27T07:02:08.067Z,26.86
2018-07-27T07:03:05.929Z,26.79
2018-07-27T07:04:05.937Z,26.91
2018-07-27T07:05:05.917Z,26.97
2018-07-27T07:06:05.950Z,26.93
2018-07-27T07:07:05.847Z,27.03
2018-07-27T07:08:05.820Z,27.11
2018-07-27T07:09:05.927Z,27.09
2018-07-27T07:10:05.815Z,27.15
2018-07-27T07:11:05.888Z,27.11
2018-07-27T07:12:05.740Z,27.09
2018-07-27T07:13:05.786Z,27.11
2018-07-27T07:14:05.710Z,27.13
2018-07-27T07:15:06.734Z,27.27
2018-07-27T07:16:05.661Z,27.34
2018-07-27T07:17:05.711Z,27.42
2018-07-27T07:18:05.629Z,27.53
2018-07-27T07:19:05.614Z,27.49
2018-07-27T07:20:05.631Z,27.53
2018-07-27T07:21:05.570Z,27.61
2018-07-27T07:22:05.639Z,27.62
2018-07-27T07:23:05.523Z,27.72
2018-07-27T07:24:05.547Z,27.93
2018-07-27T07:25:05.487Z,27.90
2018-07-27T07:26:07.681Z,27.99
2018-07-27T07:27:05.431Z,28.02
2018-07-27T07:28:05.410Z,28.14
2018-07-27T07:29:05.418Z,28.17
2018-07-27T07:30:05.372Z,28.28
2018-07-27T07:31:05.358Z,28.43
2018-07-27T07:32:06.446Z,28.38
2018-07-27T07:33:05.345Z,28.35
2018-07-27T07:34:05.308Z,28.43
2018-07-27T07:35:05.262Z,28.38
2018-07-27T07:36:05.324Z,28.28
2018-07-27T07:37:05.227Z,28.35
2018-07-27T07:38:06.263Z,28.35
2018-07-27T07:39:05.221Z,28.38
2018-07-27T07:40:05.255Z,28.39
2018-07-27T07:41:05.255Z,28.30
2018-07-27T07:42:05.132Z,28.25
2018-07-27T07:43:05.119Z,28.38
2018-07-27T07:44:05.082Z,28.36
2018-07-27T07:45:05.137Z,28.39
2018-07-27T07:46:05.039Z,28.52
2018-07-27T07:47:05.030Z,28.43
2018-07-27T07:48:04.999Z,28.57
2018-07-27T07:49:05.349Z,28.60
2018-07-27T07:50:04.962Z,28.64
2018-07-27T07:51:04.944Z,28.73
2018-07-27T07:52:05.015Z,28.67
2018-07-27T07:53:04.908Z,28.77
2018-07-27T07:54:04.929Z,28.85
2018-07-27T07:55:04.891Z,28.88
2018-07-27T07:56:05.870Z,28.89
2018-07-27T07:57:04.819Z,28.83
2018-07-27T07:58:04.850Z,28.87
2018-07-27T07:59:04.786Z,28.94
2018-07-27T08:00:04.876Z,29.02
2018-07-27T08:01:04.733Z,29.00
2018-07-27T08:02:04.775Z,28.97
2018-07-27T08:03:04.713Z,29.12
2018-07-27T08:04:04.688Z,29.03
2018-07-27T08:05:04.648Z,29.11
2018-07-27T08:06:04.702Z,29.20
2018-07-27T08:07:04.622Z,29.17
2018-07-27T08:08:04.600Z,29.27
2018-07-27T08:09:04.655Z,29.29
2018-07-27T08:10:04.576Z,29.29
2018-07-27T08:11:05.639Z,29.47
2018-07-27T08:12:04.556Z,29.45
2018-07-27T08:13:04.577Z,29.45
2018-07-27T08:14:04.470Z,29.45
2018-07-27T08:15:06.506Z,29.44
2018-07-27T08:16:04.425Z,29.62
2018-07-27T08:17:04.459Z,29.55
2018-07-27T08:18:04.409Z,29.70
2018-07-27T08:19:05.394Z,29.79
2018-07-27T08:20:04.335Z,29.91
2018-07-27T08:21:05.429Z,29.88
2018-07-27T08:22:04.301Z,29.92
2018-07-27T08:23:04.289Z,30.04
2018-07-27T08:24:04.268Z,30.11
2018-07-27T08:25:04.303Z,30.00
2018-07-27T08:26:04.223Z,30.13
2018-07-27T08:27:04.220Z,30.15
2018-07-27T08:28:04.184Z,30.03
2018-07-27T08:29:04.261Z,30.19
2018-07-27T08:30:04.152Z,30.23
2018-07-27T08:31:04.158Z,30.28
2018-07-27T08:32:04.090Z,30.32
2018-07-27T08:33:04.167Z,30.38
2018-07-27T08:34:04.081Z,30.42
2018-07-27T08:35:04.077Z,30.49
2018-07-27T08:36:04.031Z,30.49
2018-07-27T08:37:04.077Z,30.54
2018-07-27T08:38:03.979Z,30.53
2018-07-27T08:39:04.030Z,30.49
2018-07-27T08:40:03.953Z,30.64
2018-07-27T08:41:04.024Z,30.57
2018-07-27T08:42:03.891Z,30.63
2018-07-27T08:43:03.929Z,30.67
2018-07-27T08:44:03.856Z,30.73
2018-07-27T08:45:03.931Z,30.67
2018-07-27T08:46:03.827Z,30.68
2018-07-27T08:47:03.841Z,30.68
2018-07-27T08:48:03.776Z,30.73
2018-07-27T08:49:03.849Z,30.73
2018-07-27T08:50:03.736Z,30.72
2018-07-27T08:51:03.758Z,30.83
2018-07-27T08:52:03.723Z,30.81
2018-07-27T08:53:03.791Z,30.78
2018-07-27T08:54:03.650Z,30.88
2018-07-27T08:55:03.688Z,30.86
2018-07-27T08:56:03.631Z,31.07
2018-07-27T08:57:03.739Z,31.22
2018-07-27T08:58:03.563Z,31.18
2018-07-27T08:59:03.601Z,31.35
2018-07-27T09:00:03.528Z,31.30
2018-07-27T09:01:03.518Z,31.34
2018-07-27T09:02:03.498Z,31.35
2018-07-27T09:03:03.538Z,31.37
2018-07-27T09:04:03.474Z,31.32
2018-07-27T09:05:03.438Z,31.32
2018-07-27T09:06:03.414Z,31.46
2018-07-27T09:07:03.478Z,31.42
2018-07-27T09:08:03.376Z,31.47
2018-07-27T09:09:03.386Z,31.46
2018-07-27T09:10:03.331Z,31.56
2018-07-27T09:11:03.374Z,31.60
2018-07-27T09:12:03.294Z,31.72
2018-07-27T09:13:03.339Z,31.79
2018-07-27T09:14:03.249Z,31.84
2018-07-27T09:15:03.323Z,31.85
2018-07-27T09:16:03.213Z,31.85
2018-07-27T09:17:03.219Z,31.98
2018-07-27T09:18:03.167Z,32.05
2018-07-27T09:19:03.225Z,32.10
2018-07-27T09:20:03.133Z,32.03
2018-07-27T09:21:03.146Z,32.19
2018-07-27T09:22:03.093Z,32.19
2018-07-27T09:23:03.149Z,32.28
2018-07-27T09:24:03.052Z,32.25
2018-07-27T09:25:03.315Z,32.39
2018-07-27T09:26:03.060Z,32.39
2018-07-27T09:27:03.071Z,32.41
2018-07-27T09:28:02.981Z,32.50
2018-07-27T09:29:02.996Z,32.49
2018-07-27T09:30:02.936Z,32.65
2018-07-27T09:31:03.003Z,32.78
2018-07-27T09:32:02.896Z,32.80
2018-07-27T09:33:02.917Z,32.77
2018-07-27T09:34:02.914Z,32.81
2018-07-27T09:35:02.952Z,32.96
2018-07-27T09:36:02.829Z,33.07
2018-07-27T09:37:02.827Z,33.07
2018-07-27T09:38:02.778Z,32.98
2018-07-27T09:39:02.854Z,32.93
2018-07-27T09:40:02.742Z,33.11
2018-07-27T09:41:02.730Z,32.84
2018-07-27T09:42:02.820Z,32.87
2018-07-27T09:43:02.703Z,32.88
2018-07-27T09:44:02.828Z,32.95
2018-07-27T09:45:02.650Z,33.06
2018-07-27T09:46:02.732Z,33.26
2018-07-27T09:47:02.623Z,33.33
2018-07-27T09:48:02.583Z,33.53
2018-07-27T09:49:02.668Z,33.55
2018-07-27T09:50:02.541Z,33.47
2018-07-27T09:51:02.677Z,33.41
2018-07-27T09:52:02.494Z,33.50
2018-07-27T09:53:02.591Z,33.53
2018-07-27T09:54:02.483Z,33.55
2018-07-27T09:55:02.501Z,33.35
2018-07-27T09:56:48.876Z,33.21
2018-07-27T09:57:48.909Z,33.06
2018-07-27T09:59:42.616Z,32.98
2018-07-27T10:00:42.580Z,32.88
2018-07-27T10:01:42.525Z,32.88
2018-07-27T10:02:42.516Z,32.99
2018-07-27T10:03:42.496Z,33.02
2018-07-27T10:04:42.557Z,33.07
2018-07-27T10:05:42.462Z,33.18
2018-07-27T10:06:42.537Z,33.50
2018-07-27T10:07:42.458Z,33.75
2018-07-27T10:08:42.460Z,33.77
2018-07-27T10:09:42.376Z,33.66
2018-07-27T10:10:42.470Z,33.66
2018-07-27T10:11:42.341Z,33.47
2018-07-27T10:12:42.436Z,33.43
2018-07-27T10:13:42.303Z,33.28
2018-07-27T10:14:43.325Z,33.22
2018-07-27T10:15:42.294Z,33.15
2018-07-27T10:16:42.392Z,33.20
2018-07-27T10:17:42.220Z,33.33
2018-07-27T10:18:42.313Z,33.55
2018-07-27T10:19:42.198Z,33.75
2018-07-27T10:20:42.278Z,33.81
2018-07-27T10:21:42.167Z,34.11
2018-07-27T10:22:42.247Z,34.33
2018-07-27T10:23:42.108Z,34.34
2018-07-27T10:24:42.160Z,34.40
2018-07-27T10:25:42.073Z,34.43
2018-07-27T10:26:47.813Z,34.16
2018-07-27T10:27:42.036Z,34.11
2018-07-27T10:28:42.086Z,33.79
2018-07-27T10:29:41.995Z,33.75
2018-07-27T10:30:42.010Z,33.62
2018-07-27T10:31:42.008Z,33.66
2018-07-27T10:33:28.100Z,33.56
2018-07-27T10:34:28.061Z,33.52
2018-07-27T10:35:28.155Z,33.60
2018-07-27T10:36:28.044Z,33.59
2018-07-27T10:37:28.173Z,33.47
2018-07-27T10:38:28.037Z,33.22
2018-07-27T10:39:28.080Z,33.20
2018-07-27T10:40:27.932Z,33.34
2018-07-27T10:41:28.956Z,33.26
2018-07-27T10:42:27.932Z,33.34
2018-07-27T10:43:27.941Z,33.24
2018-07-27T10:44:27.910Z,33.43
2018-07-27T10:45:27.982Z,33.52
2018-07-27T10:46:27.833Z,33.53
2018-07-27T10:47:27.859Z,33.75
2018-07-27T10:48:27.777Z,33.78
2018-07-27T10:49:27.953Z,34.03
2018-07-27T10:50:27.754Z,34.43
2018-07-27T10:51:27.797Z,34.81
2018-07-27T10:52:27.724Z,35.00
2018-07-27T10:53:27.810Z,34.95
2018-07-27T10:54:27.676Z,34.95
2018-07-27T10:55:27.723Z,35.10
2018-07-27T10:56:27.646Z,35.25
2018-07-27T10:57:27.753Z,35.43
2018-07-27T10:58:27.647Z,35.68
2018-07-27T10:59:27.645Z,35.69
2018-07-27T11:00:27.564Z,35.74
2018-07-27T11:01:27.649Z,35.37
2018-07-27T11:02:27.594Z,34.99
2018-07-27T11:03:27.571Z,34.83
2018-07-27T11:04:27.496Z,34.76
2018-07-27T11:05:28.528Z,34.73
2018-07-27T11:06:27.456Z,34.87
2018-07-27T11:07:27.505Z,35.07
2018-07-27T11:09:13.879Z,35.06
2018-07-27T11:10:13.894Z,35.13
2018-07-27T11:11:13.809Z,35.25
2018-07-27T11:12:13.889Z,35.49
2018-07-27T11:13:13.783Z,35.56
2018-07-27T11:14:13.758Z,35.83
2018-07-27T11:15:13.764Z,35.58
2018-07-27T11:16:14.750Z,35.46
2018-07-27T11:17:13.754Z,35.50
2018-07-27T11:18:13.724Z,35.62
2018-07-27T11:19:13.667Z,35.71
2018-07-27T11:20:15.684Z,35.91
2018-07-27T11:21:13.619Z,36.00
2018-07-27T11:22:13.648Z,36.06
2018-07-27T11:23:13.592Z,36.06
2018-07-27T11:24:13.655Z,36.06
2018-07-27T11:25:13.554Z,36.11
2018-07-27T11:26:13.575Z,35.95
2018-07-27T11:27:13.511Z,35.76
2018-07-27T11:28:13.581Z,35.76
2018-07-27T11:29:13.475Z,35.93
2018-07-27T11:30:13.497Z,35.84
2018-07-27T11:31:13.436Z,35.56
2018-07-27T11:32:13.509Z,35.49
2018-07-27T11:33:13.399Z,35.50
2018-07-27T11:34:13.423Z,35.66
2018-07-27T11:35:13.364Z,35.80
2018-07-27T11:36:13.433Z,35.81
2018-07-27T11:37:13.390Z,35.89
2018-07-27T11:38:13.347Z,35.73
2018-07-27T11:39:13.285Z,35.71
2018-07-27T11:40:13.377Z,35.71
2018-07-27T11:41:13.272Z,35.85
2018-07-27T11:42:13.281Z,35.77
2018-07-27T11:43:13.226Z,35.81
2018-07-27T11:44:13.299Z,36.08
2018-07-27T11:45:13.183Z,36.22
2018-07-27T11:46:13.191Z,36.33
2018-07-27T11:47:13.145Z,36.40
2018-07-27T11:48:13.209Z,36.50
2018-07-27T11:49:13.097Z,36.25
2018-07-27T11:50:15.166Z,36.22
2018-07-27T11:51:13.065Z,36.13
2018-07-27T11:52:13.138Z,36.18
2018-07-27T11:53:13.026Z,36.06
2018-07-27T11:54:13.035Z,35.95
2018-07-27T11:55:12.995Z,35.50
2018-07-27T11:56:13.055Z,35.55
2018-07-27T11:57:12.948Z,35.54
2018-07-27T11:58:12.985Z,35.32
2018-07-27T11:59:12.913Z,35.46
2018-07-27T12:00:12.980Z,35.42
2018-07-27T12:01:12.905Z,35.44
2018-07-27T12:02:12.889Z,35.68
2018-07-27T12:03:12.842Z,35.61
2018-07-27T12:04:12.914Z,35.64
2018-07-27T12:05:12.816Z,35.71
2018-07-27T12:06:12.814Z,35.71
2018-07-27T12:07:12.828Z,35.47
2018-07-27T12:08:12.813Z,35.25
2018-07-27T12:09:12.740Z,35.15
2018-07-27T12:10:12.734Z,34.88
2018-07-27T12:11:12.707Z,34.78
2018-07-27T12:12:13.773Z,34.76
2018-07-27T12:13:12.669Z,34.71
2018-07-27T12:14:12.968Z,34.75
2018-07-27T12:15:13.015Z,34.75
2018-07-27T12:16:12.670Z,34.78
2018-07-27T12:17:12.588Z,34.87
2018-07-27T12:18:12.580Z,34.76
2018-07-27T12:19:12.546Z,34.71
2018-07-27T12:20:12.609Z,34.78
2018-07-27T12:21:12.609Z,34.56
2018-07-27T12:22:12.607Z,34.53
2018-07-27T12:23:12.467Z,34.53
2018-07-27T12:24:13.551Z,34.63
2018-07-27T12:25:12.440Z,34.72
2018-07-27T12:26:12.527Z,34.88
2018-07-27T12:27:12.442Z,34.91
2018-07-27T12:28:12.446Z,34.93
2018-07-27T12:29:12.372Z,34.78
2018-07-27T12:30:13.376Z,34.91
2018-07-27T12:31:12.326Z,34.94
2018-07-27T12:32:12.376Z,34.83
2018-07-27T12:33:12.306Z,34.61
2018-07-27T12:34:12.381Z,34.73
2018-07-27T12:35:12.267Z,34.80
2018-07-27T12:36:12.294Z,35.00
2018-07-27T12:37:12.222Z,34.98
2018-07-27T12:38:12.317Z,35.00
2018-07-27T12:39:12.191Z,35.03
2018-07-27T12:40:12.211Z,34.99
2018-07-27T12:41:12.166Z,35.09
2018-07-27T12:42:12.131Z,35.17
2018-07-27T12:43:12.235Z,35.17
2018-07-27T12:44:12.101Z,35.12
2018-07-27T12:45:12.237Z,35.05
2018-07-27T12:46:12.054Z,35.00
2018-07-27T12:47:12.097Z,34.91
2018-07-27T12:48:12.025Z,34.91
2018-07-27T12:49:12.009Z,34.87
2018-07-27T12:50:12.001Z,34.91
2018-07-27T12:51:11.988Z,35.02
2018-07-27T12:52:11.957Z,35.09
2018-07-27T12:53:12.051Z,35.13
2018-07-27T12:54:11.929Z,35.20
2018-07-27T12:55:12.049Z,35.13
2018-07-27T12:56:11.887Z,35.09
2018-07-27T12:57:11.920Z,35.12